createdAt,value
2017-10-19T00:59:56.003Z,1004.47
2017-10-19T01:00:04.257Z,1004.33
2017-10-19T01:00:12.209Z,1004.29
2017-10-19T01:00:20.334Z,1004.27
2017-10-19T01:00:28.498Z,1004.27
2017-10-19T01:00:38.227Z,1004.27
2017-10-19T01:00:46.345Z,1004.23
2017-10-19T01:00:54.465Z,1004.23
2017-10-19T01:01:09.090Z,1004.27
2017-10-19T01:01:19.831Z,1004.22
2017-10-19T01:01:32.914Z,1004.28
2017-10-19T01:01:40.870Z,1004.23
2017-10-19T01:01:50.599Z,1004.20
2017-10-19T01:01:58.742Z,1004.17
2017-10-19T01:02:06.861Z,1004.19
2017-10-19T01:02:21.782Z,1004.23
2017-10-19T01:02:30.586Z,1004.12
2017-10-19T01:02:38.719Z,1004.19
2017-10-19T01:02:46.846Z,1004.20
2017-10-19T01:02:54.974Z,1004.23
2017-10-19T01:03:03.113Z,1004.17
2017-10-19T01:03:11.461Z,1004.17
2017-10-19T01:03:19.412Z,1004.18
2017-10-19T01:03:27.529Z,1004.16
2017-10-19T01:03:35.662Z,1004.19
2017-10-19T01:03:43.814Z,1004.20
2017-10-19T01:03:51.945Z,1004.12
2017-10-19T01:04:00.094Z,1004.16
2017-10-19T01:04:13.985Z,1004.13
2017-10-19T01:04:27.949Z,1004.12
2017-10-19T01:04:36.158Z,1004.14
2017-10-19T01:04:44.297Z,1004.17
2017-10-19T01:04:52.413Z,1004.22
2017-10-19T01:05:00.574Z,1004.16
2017-10-19T01:05:08.761Z,1004.18
2017-10-19T01:05:21.627Z,1004.14
2017-10-19T01:05:29.219Z,1004.14
2017-10-19T01:05:37.346Z,1004.17
2017-10-19T01:05:45.478Z,1004.15
2017-10-19T01:05:54.454Z,1004.17
2017-10-19T01:06:03.349Z,1004.13
2017-10-19T01:06:11.670Z,1004.15
2017-10-19T01:06:19.838Z,1004.16
2017-10-19T01:06:27.769Z,1004.14
2017-10-19T01:06:35.914Z,1004.25
2017-10-19T01:06:44.233Z,1004.15
2017-10-19T01:06:56.929Z,1004.14
2017-10-19T01:07:04.555Z,1004.08
2017-10-19T01:07:12.686Z,1004.11
2017-10-19T01:07:20.825Z,1004.15
2017-10-19T01:07:28.958Z,1004.14
2017-10-19T01:07:37.101Z,1004.08
2017-10-19T01:07:45.232Z,1004.14
2017-10-19T01:07:53.373Z,1004.12
2017-10-19T01:08:01.511Z,1004.12
2017-10-19T01:08:09.642Z,1004.07
2017-10-19T01:08:17.782Z,1004.11
2017-10-19T01:08:26.120Z,1004.10
2017-10-19T01:08:35.793Z,1004.09
2017-10-19T01:08:43.793Z,1004.20
2017-10-19T01:08:51.934Z,1004.13
2017-10-19T01:09:04.017Z,1004.14
2017-10-19T01:09:11.403Z,1004.07
2017-10-19T01:09:19.537Z,1004.07
2017-10-19T01:09:27.877Z,1004.07
2017-10-19T01:09:35.818Z,1004.18
2017-10-19T01:09:43.970Z,1004.11
2017-10-19T01:09:52.097Z,1004.07
2017-10-19T01:10:00.433Z,1004.14
2017-10-19T01:10:13.121Z,1004.06
2017-10-19T01:10:20.742Z,1004.16
2017-10-19T01:10:32.662Z,1004.15
2017-10-19T01:10:41.233Z,1004.14
2017-10-19T01:10:49.378Z,1004.10
2017-10-19T01:10:57.515Z,1004.07
2017-10-19T01:11:05.657Z,1004.08
2017-10-19T01:11:13.801Z,1004.14
2017-10-19T01:11:23.528Z,1004.10
2017-10-19T01:11:31.674Z,1004.10
2017-10-19T01:11:39.809Z,1004.13
2017-10-19T01:11:47.946Z,1004.11
2017-10-19T01:11:56.076Z,1004.04
2017-10-19T01:12:04.225Z,1004.10
2017-10-19T01:12:13.957Z,1004.14
2017-10-19T01:12:22.096Z,1004.17
2017-10-19T01:12:30.246Z,1004.14
2017-10-19T01:12:38.377Z,1004.14
2017-10-19T01:12:46.510Z,1004.14
2017-10-19T01:12:56.250Z,1004.08
2017-10-19T01:13:04.383Z,1004.14
2017-10-19T01:13:12.529Z,1004.12
2017-10-19T01:13:20.650Z,1004.10
2017-10-19T01:13:28.789Z,1004.15
2017-10-19T01:13:36.922Z,1004.08
2017-10-19T01:13:45.086Z,1004.14
2017-10-19T01:13:53.205Z,1004.13
2017-10-19T01:14:07.094Z,1004.07
2017-10-19T01:14:15.306Z,1004.14
2017-10-19T01:14:23.441Z,1004.14
2017-10-19T01:14:31.582Z,1004.12
2017-10-19T01:14:45.462Z,1004.10
2017-10-19T01:14:53.679Z,1004.13
2017-10-19T01:15:01.829Z,1004.12
2017-10-19T01:15:09.967Z,1004.19
2017-10-19T01:15:18.100Z,1004.10
2017-10-19T01:15:27.850Z,1004.13
2017-10-19T01:15:35.997Z,1004.14
2017-10-19T01:15:44.105Z,1004.14
2017-10-19T01:15:52.248Z,1004.12
2017-10-19T01:16:00.399Z,1004.15
2017-10-19T01:16:14.265Z,1004.17
2017-10-19T01:16:22.498Z,1004.11
2017-10-19T01:16:30.633Z,1004.09
2017-10-19T01:16:43.524Z,1004.13
2017-10-19T01:16:51.121Z,1004.05
2017-10-19T01:16:59.265Z,1004.13
2017-10-19T01:17:07.425Z,1004.07
2017-10-19T01:17:15.537Z,1004.04
2017-10-19T01:17:23.670Z,1004.14
2017-10-19T01:17:31.881Z,1004.01
2017-10-19T01:17:41.737Z,1004.06
2017-10-19T01:17:49.694Z,1004.02
2017-10-19T01:17:57.837Z,1004.09
2017-10-19T01:18:05.959Z,1004.12
2017-10-19T01:18:14.106Z,1004.08
2017-10-19T01:18:22.241Z,1004.03
2017-10-19T01:18:30.570Z,1004.03
2017-10-19T01:18:40.127Z,1004.08
2017-10-19T01:18:48.271Z,1004.03
2017-10-19T01:18:56.385Z,1004.04
2017-10-19T01:19:04.536Z,1004.12
2017-10-19T01:19:20.023Z,1004.13
2017-10-19T01:19:28.249Z,1004.04
2017-10-19T01:19:37.974Z,1003.96
2017-10-19T01:19:46.105Z,1004.04
2017-10-19T01:19:54.250Z,1004.08
2017-10-19T01:20:02.395Z,1004.10
2017-10-19T01:20:12.119Z,1004.05
2017-10-19T01:20:20.253Z,1003.99
2017-10-19T01:20:28.392Z,1003.99
2017-10-19T01:20:36.545Z,1003.95
2017-10-19T01:20:46.270Z,1004.04
2017-10-19T01:20:54.410Z,1003.99
2017-10-19T01:21:04.134Z,1004.10
2017-10-19T01:21:12.276Z,1004.04
2017-10-19T01:21:20.424Z,1004.00
2017-10-19T01:21:28.574Z,1004.04
2017-10-19T01:21:36.697Z,1004.05
2017-10-19T01:21:44.839Z,1004.05
2017-10-19T01:21:52.977Z,1004.03
2017-10-19T01:22:06.858Z,1003.97
2017-10-19T01:22:15.069Z,1003.96
2017-10-19T01:22:23.218Z,1004.05
2017-10-19T01:22:31.536Z,1003.99
2017-10-19T01:22:45.253Z,1004.02
2017-10-19T01:22:53.450Z,1004.05
2017-10-19T01:23:03.201Z,1004.08
2017-10-19T01:23:11.317Z,1004.11
2017-10-19T01:23:30.017Z,1004.05
2017-10-19T01:23:42.990Z,1004.00
2017-10-19T01:23:50.590Z,1004.04
2017-10-19T01:24:07.499Z,1004.07
2017-10-19T01:24:20.153Z,1004.00
2017-10-19T01:24:28.261Z,1004.06
2017-10-19T01:24:41.152Z,1004.08
2017-10-19T01:24:48.781Z,1004.06
2017-10-19T01:24:56.898Z,1004.00
2017-10-19T01:25:05.029Z,1004.07
2017-10-19T01:25:13.175Z,1004.14
2017-10-19T01:25:21.313Z,1004.04
2017-10-19T01:25:35.201Z,1004.05
2017-10-19T01:25:43.433Z,1004.08
2017-10-19T01:25:51.569Z,1004.11
2017-10-19T01:25:59.695Z,1004.06
2017-10-19T01:26:07.826Z,1004.11
2017-10-19T01:26:15.962Z,1004.09
2017-10-19T01:26:24.097Z,1004.07
2017-10-19T01:26:37.243Z,1004.12
2017-10-19T01:26:46.793Z,1004.02
2017-10-19T01:26:54.922Z,1004.07
2017-10-19T01:27:04.649Z,1003.97
2017-10-19T01:27:12.789Z,1004.03
2017-10-19T01:27:22.534Z,1004.07
2017-10-19T01:27:34.697Z,1004.06
2017-10-19T01:27:43.042Z,1004.05
2017-10-19T01:27:51.157Z,1004.10
2017-10-19T01:27:59.301Z,1004.12
2017-10-19T01:28:07.442Z,1004.08
2017-10-19T01:28:15.590Z,1004.01
2017-10-19T01:28:23.715Z,1004.08
2017-10-19T01:28:31.864Z,1003.99
2017-10-19T01:28:39.990Z,1004.06
2017-10-19T01:28:48.126Z,1004.08
2017-10-19T01:29:04.671Z,1004.07
2017-10-19T01:29:15.026Z,1004.02
2017-10-19T01:29:28.941Z,1004.14
2017-10-19T01:29:37.129Z,1004.09
2017-10-19T01:29:45.269Z,1004.13
2017-10-19T01:29:53.414Z,1004.08
2017-10-19T01:30:07.298Z,1004.08
2017-10-19T01:30:15.529Z,1004.12
2017-10-19T01:30:23.668Z,1004.10
2017-10-19T01:30:36.551Z,1004.07
2017-10-19T01:30:44.150Z,1004.15
2017-10-19T01:30:52.298Z,1004.12
2017-10-19T01:31:00.445Z,1004.07
2017-10-19T01:31:10.158Z,1004.16
2017-10-19T01:31:18.310Z,1004.09
2017-10-19T01:31:26.434Z,1004.05
2017-10-19T01:31:34.597Z,1004.04
2017-10-19T01:31:42.711Z,1004.12
2017-10-19T01:31:50.858Z,1004.08
2017-10-19T01:32:00.782Z,1004.11
2017-10-19T01:32:08.744Z,1004.16
2017-10-19T01:32:28.428Z,1004.11
2017-10-19T01:32:37.230Z,1004.11
2017-10-19T01:32:45.373Z,1004.10
2017-10-19T01:32:53.505Z,1004.07
2017-10-19T01:33:01.638Z,1004.17
2017-10-19T01:33:09.781Z,1004.11
2017-10-19T01:33:23.669Z,1004.10
2017-10-19T01:33:31.887Z,1004.11
2017-10-19T01:33:40.017Z,1004.07
2017-10-19T01:33:48.158Z,1004.10
2017-10-19T01:33:56.290Z,1004.13
2017-10-19T01:34:10.178Z,1004.08
2017-10-19T01:34:18.402Z,1004.09
2017-10-19T01:34:31.290Z,1004.14
2017-10-19T01:34:38.901Z,1004.09
2017-10-19T01:34:48.669Z,1004.05
2017-10-19T01:34:56.782Z,1004.09
2017-10-19T01:35:04.917Z,1004.17
2017-10-19T01:35:13.047Z,1004.10
2017-10-19T01:35:22.786Z,1004.10
2017-10-19T01:35:30.918Z,1004.08
2017-10-19T01:35:39.062Z,1004.09
2017-10-19T01:35:47.214Z,1004.10
2017-10-19T01:35:55.374Z,1004.15
2017-10-19T01:36:05.075Z,1004.17
2017-10-19T01:36:13.220Z,1004.10
2017-10-19T01:36:21.345Z,1004.13
2017-10-19T01:36:29.497Z,1004.16
2017-10-19T01:36:37.616Z,1004.12
2017-10-19T01:36:45.753Z,1004.10
2017-10-19T01:36:53.907Z,1004.10
2017-10-19T01:37:03.639Z,1004.04
2017-10-19T01:37:13.386Z,1004.09
2017-10-19T01:37:21.506Z,1004.14
2017-10-19T01:37:29.646Z,1004.09
2017-10-19T01:37:37.778Z,1004.11
2017-10-19T01:37:51.929Z,1004.06
2017-10-19T01:37:59.917Z,1004.10
2017-10-19T01:38:08.014Z,1004.05
2017-10-19T01:38:16.349Z,1004.09
2017-10-19T01:38:24.304Z,1004.04
2017-10-19T01:38:32.437Z,1004.10
2017-10-19T01:38:47.941Z,1004.07
2017-10-19T01:39:01.895Z,1004.10
2017-10-19T01:39:10.110Z,1004.06
2017-10-19T01:39:18.251Z,1003.97
2017-10-19T01:39:31.137Z,1004.14
2017-10-19T01:39:38.746Z,1004.02
2017-10-19T01:39:46.894Z,1004.06
2017-10-19T01:39:55.017Z,1004.00
2017-10-19T01:40:07.914Z,1004.05
2017-10-19T01:40:15.541Z,1003.99
2017-10-19T01:40:23.670Z,1004.11
2017-10-19T01:40:31.798Z,1004.05
2017-10-19T01:40:39.947Z,1004.06
2017-10-19T01:40:48.074Z,1004.02
2017-10-19T01:40:56.230Z,1004.05
2017-10-19T01:41:04.346Z,1004.05
2017-10-19T01:41:18.245Z,1004.02
2017-10-19T01:41:28.058Z,1004.09
2017-10-19T01:41:36.202Z,1004.00
2017-10-19T01:41:45.930Z,1004.03
2017-10-19T01:41:54.067Z,1004.02
2017-10-19T01:42:02.201Z,1004.05
2017-10-19T01:42:16.101Z,1004.02
2017-10-19T01:42:24.306Z,1004.07
2017-10-19T01:42:32.431Z,1004.03
2017-10-19T01:42:40.593Z,1004.02
2017-10-19T01:42:48.713Z,1004.03
2017-10-19T01:42:56.866Z,1004.02
2017-10-19T01:43:04.992Z,1003.96
2017-10-19T01:43:14.742Z,1004.06
2017-10-19T01:43:22.865Z,1004.00
2017-10-19T01:43:31.008Z,1003.99
2017-10-19T01:43:39.137Z,1004.00
2017-10-19T01:43:47.279Z,1003.97
2017-10-19T01:43:57.011Z,1004.02
2017-10-19T01:44:06.753Z,1003.96
2017-10-19T01:44:14.887Z,1004.04
2017-10-19T01:44:27.786Z,1003.97
2017-10-19T01:44:35.394Z,1003.93
2017-10-19T01:44:43.534Z,1004.01
2017-10-19T01:44:56.478Z,1003.96
2017-10-19T01:45:04.617Z,1003.94
2017-10-19T01:45:14.353Z,1004.01
2017-10-19T01:45:27.285Z,1004.06
2017-10-19T01:45:35.426Z,1003.97
2017-10-19T01:45:43.561Z,1004.03
2017-10-19T01:45:51.682Z,1003.99
2017-10-19T01:45:59.849Z,1004.01
2017-10-19T01:46:07.962Z,1003.96
2017-10-19T01:46:17.705Z,1004.02
2017-10-19T01:46:27.437Z,1004.02
2017-10-19T01:46:35.581Z,1003.94
2017-10-19T01:46:43.719Z,1003.89
2017-10-19T01:46:51.866Z,1003.97
2017-10-19T01:46:59.997Z,1004.02
2017-10-19T01:47:08.126Z,1003.96
2017-10-19T01:47:16.263Z,1003.94
2017-10-19T01:47:25.998Z,1003.95
2017-10-19T01:47:34.134Z,1003.98
2017-10-19T01:47:48.636Z,1003.92
2017-10-19T01:47:56.241Z,1003.92
2017-10-19T01:48:04.381Z,1003.96
2017-10-19T01:48:12.518Z,1003.93
2017-10-19T01:48:22.253Z,1003.92
2017-10-19T01:48:30.397Z,1003.96
2017-10-19T01:48:38.538Z,1004.04
2017-10-19T01:48:53.065Z,1004.00
2017-10-19T01:49:01.206Z,1003.95
2017-10-19T01:49:09.362Z,1003.90
2017-10-19T01:49:17.485Z,1003.88
2017-10-19T01:49:27.227Z,1003.92
2017-10-19T01:49:40.175Z,1003.90
2017-10-19T01:49:53.093Z,1003.99
2017-10-19T01:50:06.026Z,1003.95
2017-10-19T01:50:14.153Z,1003.90
2017-10-19T01:50:22.319Z,1003.91
2017-10-19T01:50:30.446Z,1003.85
2017-10-19T01:50:38.583Z,1003.91
2017-10-19T01:50:46.717Z,1003.95
2017-10-19T01:50:54.857Z,1003.97
2017-10-19T01:51:04.609Z,1003.94
2017-10-19T01:51:12.731Z,1004.02
2017-10-19T01:51:20.875Z,1003.92
2017-10-19T01:51:30.610Z,1004.02
2017-10-19T01:51:43.494Z,1003.97
2017-10-19T01:51:54.313Z,1003.98
2017-10-19T01:52:08.201Z,1003.97
2017-10-19T01:52:16.414Z,1003.96
2017-10-19T01:52:24.557Z,1003.87
2017-10-19T01:52:32.682Z,1003.95
2017-10-19T01:52:40.837Z,1003.97
2017-10-19T01:52:48.961Z,1003.88
2017-10-19T01:52:57.102Z,1003.87
2017-10-19T01:53:05.238Z,1003.90
2017-10-19T01:53:13.370Z,1003.88
2017-10-19T01:53:21.514Z,1003.98
2017-10-19T01:53:29.661Z,1003.96
2017-10-19T01:53:37.789Z,1004.01
2017-10-19T01:53:45.923Z,1003.87
2017-10-19T01:53:54.058Z,1003.93
2017-10-19T01:54:02.195Z,1003.90
2017-10-19T01:54:11.973Z,1003.93
2017-10-19T01:54:20.071Z,1003.87
2017-10-19T01:54:29.826Z,1003.88
2017-10-19T01:54:37.938Z,1003.92
2017-10-19T01:54:46.089Z,1003.86
2017-10-19T01:54:59.978Z,1003.95
2017-10-19T01:55:08.197Z,1003.89
2017-10-19T01:55:16.330Z,1003.88
2017-10-19T01:55:24.462Z,1003.87
2017-10-19T01:55:38.373Z,1003.91
2017-10-19T01:55:46.566Z,1003.87
2017-10-19T01:55:54.710Z,1003.90
2017-10-19T01:56:02.840Z,1003.83
2017-10-19T01:56:11.012Z,1003.98
2017-10-19T01:56:23.865Z,1003.92
2017-10-19T01:56:31.474Z,1003.86
2017-10-19T01:56:39.617Z,1003.89
2017-10-19T01:56:47.758Z,1003.86
2017-10-19T01:56:55.898Z,1003.98
2017-10-19T01:57:04.021Z,1003.96
2017-10-19T01:57:12.170Z,1003.91
2017-10-19T01:57:21.913Z,1003.86
2017-10-19T01:57:30.042Z,1003.89
2017-10-19T01:57:38.172Z,1004.00
2017-10-19T01:57:46.321Z,1004.08
2017-10-19T01:57:54.454Z,1003.92
2017-10-19T01:58:02.604Z,1003.91
2017-10-19T01:58:10.734Z,1003.97
2017-10-19T01:58:18.865Z,1003.93
2017-10-19T01:58:27.009Z,1003.85
2017-10-19T01:58:35.142Z,1003.94
2017-10-19T01:58:43.281Z,1003.91
2017-10-19T01:58:51.435Z,1003.88
2017-10-19T01:58:59.566Z,1003.93
2017-10-19T01:59:07.686Z,1003.89
2017-10-19T01:59:15.825Z,1003.90
2017-10-19T01:59:24.174Z,1003.84
2017-10-19T01:59:32.106Z,1003.87
2017-10-19T01:59:44.989Z,1003.92
2017-10-19T01:59:52.609Z,1003.87
2017-10-19T02:00:00.750Z,1003.84
2017-10-19T02:00:08.877Z,1003.87
2017-10-19T02:00:17.029Z,1003.93
2017-10-19T02:00:25.169Z,1003.88
2017-10-19T02:00:33.298Z,1003.91
2017-10-19T02:00:41.442Z,1003.88
2017-10-19T02:00:49.574Z,1003.87
2017-10-19T02:00:57.705Z,1003.92
2017-10-19T02:01:05.845Z,1003.93
2017-10-19T02:01:13.989Z,1003.89
2017-10-19T02:01:22.130Z,1003.91
2017-10-19T02:01:30.269Z,1003.91
2017-10-19T02:01:38.514Z,1003.92
2017-10-19T02:01:46.535Z,1003.87
2017-10-19T02:01:54.671Z,1003.90
2017-10-19T02:02:02.823Z,1003.84
2017-10-19T02:02:10.948Z,1003.93
2017-10-19T02:02:19.093Z,1003.92
2017-10-19T02:02:27.221Z,1003.83
2017-10-19T02:02:35.357Z,1003.87
2017-10-19T02:02:43.502Z,1003.88
2017-10-19T02:02:56.594Z,1003.85
2017-10-19T02:03:03.998Z,1003.89
2017-10-19T02:03:12.138Z,1003.82
2017-10-19T02:03:20.282Z,1003.91
2017-10-19T02:03:28.426Z,1003.92
2017-10-19T02:03:36.559Z,1003.83
2017-10-19T02:03:44.698Z,1003.85
2017-10-19T02:03:58.598Z,1003.85
2017-10-19T02:04:06.791Z,1003.87
2017-10-19T02:04:16.546Z,1003.89
2017-10-19T02:04:24.670Z,1003.89
2017-10-19T02:04:32.805Z,1003.90
2017-10-19T02:04:40.942Z,1003.87
2017-10-19T02:04:49.094Z,1003.85
2017-10-19T02:04:57.221Z,1003.88
2017-10-19T02:05:05.363Z,1003.88
2017-10-19T02:05:15.101Z,1003.89
2017-10-19T02:05:23.229Z,1003.88
2017-10-19T02:05:31.365Z,1003.91
2017-10-19T02:05:39.507Z,1003.88
2017-10-19T02:05:47.638Z,1003.91
2017-10-19T02:05:55.782Z,1003.87
2017-10-19T02:06:03.934Z,1003.82
2017-10-19T02:06:12.061Z,1003.88
2017-10-19T02:06:20.211Z,1003.87
2017-10-19T02:06:28.334Z,1003.95
2017-10-19T02:06:36.461Z,1003.89
2017-10-19T02:06:44.614Z,1003.87
2017-10-19T02:06:52.758Z,1003.90
2017-10-19T02:07:00.882Z,1003.91
2017-10-19T02:07:09.089Z,1003.85
2017-10-19T02:07:17.153Z,1003.85
2017-10-19T02:07:26.929Z,1003.86
2017-10-19T02:07:39.801Z,1003.87
2017-10-19T02:07:47.394Z,1003.87
2017-10-19T02:07:57.157Z,1003.78
2017-10-19T02:08:05.266Z,1003.86
2017-10-19T02:08:15.006Z,1003.86
2017-10-19T02:08:23.141Z,1003.93
2017-10-19T02:08:31.299Z,1003.85
2017-10-19T02:08:43.182Z,1003.80
2017-10-19T02:08:51.792Z,1003.91
2017-10-19T02:09:08.394Z,1003.83
2017-10-19T02:09:22.289Z,1003.95
2017-10-19T02:09:30.499Z,1003.92
2017-10-19T02:09:38.617Z,1003.89
2017-10-19T02:09:46.777Z,1003.91
2017-10-19T02:09:54.895Z,1003.92
2017-10-19T02:10:03.042Z,1003.89
2017-10-19T02:10:12.977Z,1003.91
2017-10-19T02:10:21.142Z,1003.92
2017-10-19T02:10:30.650Z,1003.97
2017-10-19T02:10:38.786Z,1003.90
2017-10-19T02:10:46.926Z,1003.92
2017-10-19T02:10:55.059Z,1003.91
2017-10-19T02:11:07.956Z,1003.96
2017-10-19T02:11:15.762Z,1003.86
2017-10-19T02:11:23.710Z,1003.92
2017-10-19T02:11:37.590Z,1003.89
2017-10-19T02:11:45.802Z,1003.95
2017-10-19T02:11:53.942Z,1003.92
2017-10-19T02:12:02.266Z,1003.85
2017-10-19T02:12:10.206Z,1003.91
2017-10-19T02:12:18.355Z,1003.91
2017-10-19T02:12:26.494Z,1003.91
2017-10-19T02:12:34.625Z,1003.89
2017-10-19T02:12:42.758Z,1003.84
2017-10-19T02:12:50.910Z,1003.92
2017-10-19T02:12:59.034Z,1003.89
2017-10-19T02:13:07.382Z,1003.88
2017-10-19T02:13:15.321Z,1004.03
2017-10-19T02:13:23.451Z,1003.91
2017-10-19T02:13:31.593Z,1003.90
2017-10-19T02:13:39.722Z,1003.89
2017-10-19T02:13:51.626Z,1003.85
2017-10-19T02:14:00.233Z,1003.89
2017-10-19T02:14:08.364Z,1003.91
2017-10-19T02:14:16.511Z,1003.87
2017-10-19T02:14:24.638Z,1003.86
2017-10-19T02:14:32.782Z,1003.90
2017-10-19T02:14:40.914Z,1003.93
2017-10-19T02:14:50.674Z,1004.00
2017-10-19T02:14:58.798Z,1003.93
2017-10-19T02:15:06.941Z,1003.85
2017-10-19T02:15:15.074Z,1003.95
2017-10-19T02:15:23.205Z,1003.87
2017-10-19T02:15:31.341Z,1003.91
2017-10-19T02:15:39.486Z,1003.85
2017-10-19T02:15:47.605Z,1003.96
2017-10-19T02:15:55.758Z,1003.86
2017-10-19T02:16:03.896Z,1003.99
2017-10-19T02:16:12.221Z,1003.92
2017-10-19T02:16:20.165Z,1003.85
2017-10-19T02:16:28.306Z,1003.96
2017-10-19T02:16:36.438Z,1003.90
2017-10-19T02:16:44.597Z,1003.95
2017-10-19T02:16:52.717Z,1003.90
2017-10-19T02:17:05.618Z,1003.91
2017-10-19T02:17:13.218Z,1003.90
2017-10-19T02:17:21.356Z,1003.93
2017-10-19T02:17:29.498Z,1003.87
2017-10-19T02:17:37.629Z,1003.96
2017-10-19T02:17:50.526Z,1003.87
2017-10-19T02:17:58.140Z,1003.91
2017-10-19T02:18:06.273Z,1003.88
2017-10-19T02:18:14.409Z,1003.94
2017-10-19T02:18:22.547Z,1003.89
2017-10-19T02:18:30.681Z,1003.96
2017-10-19T02:18:38.809Z,1003.91
2017-10-19T02:18:46.953Z,1003.95
2017-10-19T02:18:58.854Z,1003.92
2017-10-19T02:19:07.457Z,1003.97
2017-10-19T02:19:20.362Z,1003.92
2017-10-19T02:19:27.969Z,1003.97
2017-10-19T02:19:36.105Z,1003.90
2017-10-19T02:19:44.241Z,1003.97
2017-10-19T02:19:52.382Z,1004.00
2017-10-19T02:20:00.506Z,1003.94
2017-10-19T02:20:13.397Z,1003.86
2017-10-19T02:20:21.009Z,1003.93
2017-10-19T02:20:29.157Z,1003.93
2017-10-19T02:20:37.285Z,1003.99
2017-10-19T02:20:51.182Z,1003.93
2017-10-19T02:20:59.398Z,1003.89
2017-10-19T02:21:07.533Z,1003.87
2017-10-19T02:21:15.668Z,1003.85
2017-10-19T02:21:24.022Z,1003.99
2017-10-19T02:21:31.943Z,1003.89
2017-10-19T02:21:40.085Z,1003.91
2017-10-19T02:21:48.217Z,1003.92
2017-10-19T02:21:56.365Z,1003.86
2017-10-19T02:22:10.243Z,1003.92
2017-10-19T02:22:18.477Z,1003.87
2017-10-19T02:22:32.367Z,1003.95
2017-10-19T02:22:40.572Z,1003.87
2017-10-19T02:22:48.897Z,1003.92
2017-10-19T02:22:56.838Z,1003.95
2017-10-19T02:23:09.722Z,1003.86
2017-10-19T02:23:17.354Z,1003.89
2017-10-19T02:23:25.482Z,1003.86
2017-10-19T02:23:33.613Z,1003.92
2017-10-19T02:23:41.758Z,1003.91
2017-10-19T02:23:49.887Z,1003.88
2017-10-19T02:23:58.039Z,1003.92
2017-10-19T02:24:06.170Z,1003.89
2017-10-19T02:24:14.310Z,1003.87
2017-10-19T02:24:22.438Z,1003.92
2017-10-19T02:24:30.572Z,1003.87
2017-10-19T02:24:38.707Z,1003.93
2017-10-19T02:24:46.853Z,1003.85
2017-10-19T02:24:55.003Z,1003.89
2017-10-19T02:25:03.126Z,1003.85
2017-10-19T02:25:11.262Z,1003.87
2017-10-19T02:25:19.402Z,1003.91
2017-10-19T02:25:27.542Z,1003.88
2017-10-19T02:25:35.683Z,1003.88
2017-10-19T02:25:43.826Z,1003.89
2017-10-19T02:25:51.968Z,1003.92
2017-10-19T02:26:00.330Z,1003.98
2017-10-19T02:26:08.218Z,1003.88
2017-10-19T02:26:16.362Z,1003.85
2017-10-19T02:26:24.534Z,1003.87
2017-10-19T02:26:32.658Z,1003.82
2017-10-19T02:26:40.778Z,1003.89
2017-10-19T02:26:48.913Z,1003.91
2017-10-19T02:27:01.801Z,1003.95
2017-10-19T02:27:09.434Z,1003.88
2017-10-19T02:27:22.327Z,1003.87
2017-10-19T02:27:29.917Z,1003.91
2017-10-19T02:27:38.059Z,1003.98
2017-10-19T02:27:46.209Z,1003.91
2017-10-19T02:27:55.929Z,1003.94
2017-10-19T02:28:04.074Z,1003.89
2017-10-19T02:28:12.217Z,1003.93
2017-10-19T02:28:20.342Z,1003.86
2017-10-19T02:28:28.487Z,1003.89
2017-10-19T02:28:36.621Z,1003.91
2017-10-19T02:28:44.757Z,1003.94
2017-10-19T02:28:52.897Z,1003.92
2017-10-19T02:29:06.789Z,1003.87
2017-10-19T02:29:15.020Z,1003.93
2017-10-19T02:29:23.142Z,1003.91
2017-10-19T02:29:31.481Z,1003.91
2017-10-19T02:29:39.409Z,1003.97
2017-10-19T02:29:47.558Z,1003.88
2017-10-19T02:29:55.689Z,1003.93
2017-10-19T02:30:03.837Z,1003.97
2017-10-19T02:30:11.957Z,1004.02
2017-10-19T02:30:20.109Z,1003.95
2017-10-19T02:30:28.243Z,1003.91
2017-10-19T02:30:36.369Z,1003.94
2017-10-19T02:30:44.505Z,1003.88
2017-10-19T02:30:52.665Z,1003.95
2017-10-19T02:31:00.798Z,1003.90
2017-10-19T02:31:08.933Z,1003.94
2017-10-19T02:31:17.058Z,1003.99
2017-10-19T02:31:25.202Z,1004.02
2017-10-19T02:31:33.342Z,1003.94
2017-10-19T02:31:41.484Z,1003.92
2017-10-19T02:31:49.810Z,1003.94
2017-10-19T02:31:57.745Z,1003.97
2017-10-19T02:32:05.881Z,1003.94
2017-10-19T02:32:14.023Z,1003.98
2017-10-19T02:32:22.162Z,1003.91
2017-10-19T02:32:30.314Z,1003.89
2017-10-19T02:32:40.043Z,1004.02
2017-10-19T02:32:48.182Z,1004.00
2017-10-19T02:32:56.507Z,1003.97
2017-10-19T02:33:04.447Z,1003.88
2017-10-19T02:33:12.589Z,1003.87
2017-10-19T02:33:20.734Z,1003.94
2017-10-19T02:33:28.870Z,1003.97
2017-10-19T02:33:37.024Z,1003.89
2017-10-19T02:33:49.910Z,1003.92
2017-10-19T02:34:03.257Z,1003.91
2017-10-19T02:34:15.725Z,1003.90
2017-10-19T02:34:23.841Z,1003.89
2017-10-19T02:34:31.975Z,1003.94
2017-10-19T02:34:44.869Z,1003.96
2017-10-19T02:34:52.480Z,1003.92
2017-10-19T02:35:00.630Z,1004.00
2017-10-19T02:35:08.757Z,1003.95
2017-10-19T02:35:16.894Z,1003.90
2017-10-19T02:35:25.022Z,1003.94
2017-10-19T02:35:33.159Z,1003.95
2017-10-19T02:35:41.322Z,1003.93
2017-10-19T02:35:49.433Z,1003.97
2017-10-19T02:35:57.583Z,1003.92
2017-10-19T02:36:05.720Z,1003.97
2017-10-19T02:36:13.845Z,1003.95
2017-10-19T02:36:21.990Z,1004.00
2017-10-19T02:36:30.122Z,1003.98
2017-10-19T02:36:38.281Z,1003.93
2017-10-19T02:36:46.412Z,1003.93
2017-10-19T02:36:54.539Z,1003.88
2017-10-19T02:37:02.679Z,1003.91
2017-10-19T02:37:10.813Z,1003.93
2017-10-19T02:37:18.953Z,1003.96
2017-10-19T02:37:27.293Z,1003.93
2017-10-19T02:37:35.226Z,1003.97
2017-10-19T02:37:43.370Z,1003.87
2017-10-19T02:37:56.249Z,1003.89
2017-10-19T02:38:03.866Z,1003.95
2017-10-19T02:38:12.006Z,1003.96
2017-10-19T02:38:20.151Z,1003.95
2017-10-19T02:38:28.293Z,1004.01
2017-10-19T02:38:36.415Z,1003.92
2017-10-19T02:38:44.554Z,1003.93
2017-10-19T02:38:52.698Z,1003.92
2017-10-19T02:39:00.837Z,1003.89
2017-10-19T02:39:09.002Z,1003.97
2017-10-19T02:39:17.093Z,1003.90
2017-10-19T02:39:25.239Z,1003.94
2017-10-19T02:39:33.578Z,1003.77
2017-10-19T02:39:41.526Z,1003.86
2017-10-19T02:39:49.670Z,1003.92
2017-10-19T02:39:57.798Z,1003.95
2017-10-19T02:40:05.927Z,1003.82
2017-10-19T02:40:14.066Z,1003.94
2017-10-19T02:40:30.674Z,1003.96
2017-10-19T02:40:38.794Z,1003.94
2017-10-19T02:40:46.937Z,1003.95
2017-10-19T02:40:59.840Z,1003.94
2017-10-19T02:41:07.454Z,1003.93
2017-10-19T02:41:21.345Z,1003.94
2017-10-19T02:41:29.574Z,1003.95
2017-10-19T02:41:37.906Z,1003.99
2017-10-19T02:41:45.829Z,1003.89
2017-10-19T02:41:59.714Z,1003.95
2017-10-19T02:42:07.922Z,1003.88
2017-10-19T02:42:16.081Z,1003.92
2017-10-19T02:42:24.214Z,1003.96
2017-10-19T02:42:38.115Z,1003.96
2017-10-19T02:42:46.309Z,1003.93
2017-10-19T02:42:54.438Z,1003.95
2017-10-19T02:43:02.582Z,1003.95
2017-10-19T02:43:10.725Z,1003.93
2017-10-19T02:43:18.870Z,1003.92
2017-10-19T02:43:27.010Z,1004.01
2017-10-19T02:43:35.135Z,1004.00
2017-10-19T02:43:43.273Z,1003.97
2017-10-19T02:43:51.411Z,1003.95
2017-10-19T02:43:59.541Z,1003.92
2017-10-19T02:44:07.698Z,1003.91
2017-10-19T02:44:15.834Z,1003.91
2017-10-19T02:44:23.953Z,1003.96
2017-10-19T02:44:32.099Z,1003.95
2017-10-19T02:44:40.233Z,1004.03
2017-10-19T02:44:48.365Z,1004.00
2017-10-19T02:44:56.527Z,1003.93
2017-10-19T02:45:04.657Z,1003.95
2017-10-19T02:45:12.791Z,1003.95
2017-10-19T02:45:20.917Z,1004.00
2017-10-19T02:45:29.065Z,1003.97
2017-10-19T02:45:37.194Z,1003.95
2017-10-19T02:45:45.345Z,1003.99
2017-10-19T02:45:53.477Z,1003.95
2017-10-19T02:46:01.617Z,1003.89
2017-10-19T02:46:09.746Z,1003.93
2017-10-19T02:46:17.897Z,1003.96
2017-10-19T02:46:26.035Z,1003.94
2017-10-19T02:46:34.166Z,1003.91
2017-10-19T02:46:48.059Z,1003.87
2017-10-19T02:46:56.267Z,1003.91
2017-10-19T02:47:04.392Z,1003.92
2017-10-19T02:47:12.542Z,1003.96
2017-10-19T02:47:20.678Z,1004.03
2017-10-19T02:47:28.870Z,1004.00